createdAt,value
2022-12-26T03:59:19.382Z,0.00
2022-12-26T04:00:19.238Z,0.00
2022-12-26T04:01:19.445Z,0.00
2022-12-26T04:02:19.371Z,0.00
2022-12-26T04:03:19.273Z,0.00
2022-12-26T04:04:19.223Z,0.00
2022-12-26T04:05:19.196Z,0.00
2022-12-26T04:06:19.205Z,0.00
2022-12-26T04:07:19.193Z,0.00
2022-12-26T04:08:19.401Z,0.00
2022-12-26T04:09:19.182Z,0.00
2022-12-26T04:10:19.159Z,0.00
2022-12-26T04:11:19.167Z,0.00
2022-12-26T04:12:19.170Z,0.00
2022-12-26T04:13:19.159Z,0.00
2022-12-26T04:14:19.157Z,0.00
2022-12-26T04:15:19.151Z,0.00
2022-12-26T04:16:19.257Z,0.00
2022-12-26T04:17:19.139Z,0.00
2022-12-26T04:18:19.156Z,0.00
2022-12-26T04:19:19.158Z,0.00
2022-12-26T04:20:19.125Z,0.00
2022-12-26T04:21:19.128Z,0.00
2022-12-26T04:22:19.116Z,0.00
2022-12-26T04:23:19.108Z,0.00
2022-12-26T04:24:19.116Z,0.00
2022-12-26T04:25:19.099Z,0.00
2022-12-26T04:26:19.097Z,0.00
2022-12-26T04:27:19.091Z,0.00
2022-12-26T04:28:19.091Z,0.00
2022-12-26T04:29:19.083Z,0.00
2022-12-26T04:30:19.083Z,0.00
2022-12-26T04:31:19.135Z,0.00
2022-12-26T04:32:19.074Z,0.00
2022-12-26T04:33:19.101Z,0.00
2022-12-26T04:34:19.065Z,0.00
2022-12-26T04:35:19.059Z,0.00
2022-12-26T04:36:19.054Z,0.00
2022-12-26T04:37:19.052Z,0.00
2022-12-26T04:38:19.052Z,0.00
2022-12-26T04:39:19.040Z,0.00
2022-12-26T04:40:19.037Z,0.00
2022-12-26T04:41:19.058Z,0.00
2022-12-26T04:42:19.041Z,0.00
2022-12-26T04:43:47.032Z,0.00
2022-12-26T04:44:19.063Z,0.00
2022-12-26T04:45:19.015Z,0.00
2022-12-26T04:46:19.049Z,0.00
2022-12-26T04:47:19.043Z,0.00
2022-12-26T04:48:19.021Z,0.00
2022-12-26T04:49:18.997Z,0.00
2022-12-26T04:50:19.012Z,0.00
2022-12-26T04:51:18.996Z,0.00
2022-12-26T04:52:18.996Z,0.00
2022-12-26T04:53:19.031Z,0.00
2022-12-26T04:54:18.991Z,0.00
2022-12-26T04:55:18.989Z,0.00
2022-12-26T04:56:18.978Z,0.00
2022-12-26T04:57:18.971Z,0.00
2022-12-26T04:58:18.967Z,0.00
2022-12-26T04:59:18.970Z,0.00
2022-12-26T05:00:18.977Z,0.00
2022-12-26T05:01:19.018Z,0.00
2022-12-26T05:02:19.059Z,0.00
2022-12-26T05:03:19.862Z,0.00
2022-12-26T05:04:18.943Z,0.00
2022-12-26T05:05:18.944Z,0.00
2022-12-26T05:06:18.959Z,0.00
2022-12-26T05:07:18.932Z,0.00
2022-12-26T05:08:18.944Z,0.00
2022-12-26T05:09:18.920Z,0.00
2022-12-26T05:10:18.931Z,0.00
2022-12-26T05:11:18.922Z,0.00
2022-12-26T05:12:18.922Z,0.00
2022-12-26T05:13:18.913Z,0.00
2022-12-26T05:14:18.903Z,0.00
2022-12-26T05:15:18.907Z,0.00
2022-12-26T05:16:18.923Z,0.00
2022-12-26T05:17:18.890Z,0.00
2022-12-26T05:18:18.888Z,0.00
2022-12-26T05:19:18.903Z,0.00
2022-12-26T05:20:18.912Z,0.00
2022-12-26T05:21:18.895Z,0.00
2022-12-26T05:22:18.892Z,0.00
2022-12-26T05:23:18.880Z,0.00
2022-12-26T05:24:18.867Z,0.00
2022-12-26T05:25:18.858Z,0.00
2022-12-26T05:26:18.858Z,0.00
2022-12-26T05:27:18.856Z,0.00
2022-12-26T05:28:18.847Z,0.00
2022-12-26T05:29:18.860Z,0.00
2022-12-26T05:30:18.838Z,0.00
2022-12-26T05:31:18.857Z,0.00
2022-12-26T05:32:18.848Z,0.00
2022-12-26T05:33:18.829Z,0.00
2022-12-26T05:34:18.825Z,0.00
2022-12-26T05:35:18.839Z,0.00
2022-12-26T05:36:18.834Z,0.00
2022-12-26T05:37:18.813Z,0.00
2022-12-26T05:38:18.824Z,0.00
2022-12-26T05:39:18.811Z,0.00
2022-12-26T05:40:18.805Z,0.00
2022-12-26T05:41:18.815Z,0.00
2022-12-26T05:42:18.797Z,0.00
2022-12-26T05:43:18.801Z,0.00
2022-12-26T05:44:18.802Z,0.00
2022-12-26T05:45:18.796Z,0.00
2022-12-26T05:46:18.834Z,0.00
2022-12-26T05:47:18.778Z,0.00
2022-12-26T05:48:18.785Z,0.00
2022-12-26T05:49:18.772Z,0.00
2022-12-26T05:50:18.775Z,0.00
2022-12-26T05:51:18.774Z,0.00
2022-12-26T05:52:18.755Z,0.00
2022-12-26T05:53:18.761Z,0.00
2022-12-26T05:54:18.763Z,0.00
2022-12-26T05:55:18.756Z,0.00
2022-12-26T05:56:18.741Z,0.00
2022-12-26T05:57:18.738Z,0.00
2022-12-26T05:58:18.739Z,0.00
2022-12-26T05:59:18.743Z,0.00
2022-12-26T06:00:18.737Z,0.00
2022-12-26T06:01:18.837Z,0.00
2022-12-26T06:02:18.851Z,0.00
2022-12-26T06:03:18.897Z,0.00
2022-12-26T06:04:18.721Z,0.00
2022-12-26T06:05:18.712Z,0.00
2022-12-26T06:06:18.712Z,0.00
2022-12-26T06:07:18.714Z,0.00
2022-12-26T06:08:18.704Z,0.00
2022-12-26T06:09:18.699Z,0.00
2022-12-26T06:10:18.698Z,0.00
2022-12-26T06:11:18.689Z,0.00
2022-12-26T06:12:18.681Z,0.00
2022-12-26T06:13:18.676Z,0.00
2022-12-26T06:14:18.689Z,0.00
2022-12-26T06:15:18.687Z,0.00
2022-12-26T06:16:18.740Z,0.00
2022-12-26T06:17:18.666Z,0.00
2022-12-26T06:18:18.652Z,0.00
2022-12-26T06:19:18.651Z,0.00
2022-12-26T06:20:18.672Z,0.00
2022-12-26T06:21:18.660Z,0.00
2022-12-26T06:22:18.652Z,0.00
2022-12-26T06:23:18.651Z,0.00
2022-12-26T06:24:18.637Z,0.00
2022-12-26T06:25:18.642Z,0.00
2022-12-26T06:26:18.627Z,0.00
2022-12-26T06:27:18.627Z,0.00
2022-12-26T06:28:18.634Z,0.00
2022-12-26T06:29:18.624Z,0.00
2022-12-26T06:30:18.621Z,0.00
2022-12-26T06:31:18.641Z,0.00
2022-12-26T06:32:18.613Z,0.00
2022-12-26T06:33:18.615Z,0.00
2022-12-26T06:34:18.618Z,0.00
2022-12-26T06:35:18.589Z,0.00
2022-12-26T06:36:18.585Z,0.00
2022-12-26T06:37:18.602Z,0.00
2022-12-26T06:38:18.583Z,0.00
2022-12-26T06:39:18.610Z,0.00
2022-12-26T06:40:18.588Z,0.00
2022-12-26T06:41:18.600Z,0.00
2022-12-26T06:42:18.578Z,0.00
2022-12-26T06:43:18.576Z,0.00
2022-12-26T06:44:18.956Z,0.00
2022-12-26T06:45:18.551Z,0.00
2022-12-26T06:46:18.596Z,0.00
2022-12-26T06:47:18.563Z,0.00
2022-12-26T06:48:18.539Z,0.00
2022-12-26T06:49:18.562Z,0.00
2022-12-26T06:50:18.535Z,0.00
2022-12-26T06:51:18.547Z,0.00
2022-12-26T06:52:18.542Z,0.00
2022-12-26T06:53:18.520Z,0.00
2022-12-26T06:54:18.535Z,0.00
2022-12-26T06:55:18.535Z,0.00
2022-12-26T06:56:18.556Z,0.00
2022-12-26T06:57:18.514Z,0.00
2022-12-26T06:58:18.534Z,0.00
2022-12-26T06:59:18.509Z,0.00
2022-12-26T07:00:18.509Z,0.00
2022-12-26T07:01:18.597Z,0.00
2022-12-26T07:02:18.675Z,0.00
2022-12-26T07:03:18.493Z,0.00
2022-12-26T07:04:18.515Z,0.00
2022-12-26T07:05:18.482Z,0.00
2022-12-26T07:06:18.489Z,0.00
2022-12-26T07:07:18.476Z,0.00
2022-12-26T07:08:18.479Z,0.00
2022-12-26T07:09:18.461Z,0.00
2022-12-26T07:10:18.467Z,4.00
2022-12-26T07:11:18.465Z,4.00
2022-12-26T07:12:18.449Z,4.00
2022-12-26T07:13:18.471Z,0.00
2022-12-26T07:14:18.454Z,4.00
2022-12-26T07:15:18.442Z,4.00
2022-12-26T07:16:18.468Z,8.00
2022-12-26T07:17:18.425Z,4.00
2022-12-26T07:18:18.436Z,4.00
2022-12-26T07:19:18.433Z,8.00
2022-12-26T07:20:18.415Z,8.00
2022-12-26T07:21:18.430Z,8.00
2022-12-26T07:22:18.409Z,12.00
2022-12-26T07:23:18.415Z,8.00
2022-12-26T07:24:18.408Z,12.00
2022-12-26T07:25:18.394Z,12.00
2022-12-26T07:26:18.404Z,16.00
2022-12-26T07:27:18.415Z,12.00
2022-12-26T07:28:18.395Z,20.00
2022-12-26T07:29:18.419Z,16.00
2022-12-26T07:30:18.378Z,24.00
2022-12-26T07:31:18.478Z,24.00
2022-12-26T07:32:18.393Z,28.00
2022-12-26T07:33:18.371Z,28.00
2022-12-26T07:34:18.361Z,28.00
2022-12-26T07:35:18.355Z,32.00
2022-12-26T07:36:18.367Z,32.00
2022-12-26T07:37:18.373Z,36.00
2022-12-26T07:38:18.372Z,36.00
2022-12-26T07:39:18.339Z,40.00
2022-12-26T07:40:18.364Z,40.00
2022-12-26T07:41:18.334Z,44.00
2022-12-26T07:42:18.331Z,48.00
2022-12-26T07:43:18.352Z,48.00
2022-12-26T07:44:18.331Z,52.00
2022-12-26T07:45:18.340Z,52.00
2022-12-26T07:46:18.338Z,56.00
2022-12-26T07:47:18.308Z,64.00
2022-12-26T07:48:18.355Z,68.00
2022-12-26T07:49:18.306Z,72.00
2022-12-26T07:50:18.299Z,76.00
2022-12-26T07:51:18.299Z,84.00
2022-12-26T07:52:18.291Z,92.00
2022-12-26T07:53:18.284Z,96.00
2022-12-26T07:54:18.305Z,100.00
2022-12-26T07:55:18.279Z,108.00
2022-12-26T07:56:18.274Z,108.00
2022-12-26T07:58:18.269Z,112.00
2022-12-26T07:59:18.321Z,124.00
2022-12-26T08:00:18.263Z,128.00
2022-12-26T08:01:18.405Z,132.00
2022-12-26T08:02:18.467Z,140.00
2022-12-26T08:03:18.453Z,140.00
2022-12-26T08:04:18.258Z,156.00
2022-12-26T08:05:18.239Z,156.00
2022-12-26T08:06:18.238Z,164.00
2022-12-26T08:07:18.235Z,176.00
2022-12-26T08:08:18.258Z,196.00
2022-12-26T08:09:18.225Z,204.00
2022-12-26T08:10:18.222Z,212.00
2022-12-26T08:11:18.241Z,212.00
2022-12-26T08:12:18.212Z,220.00
2022-12-26T08:13:18.284Z,220.00
2022-12-26T08:14:18.228Z,216.00
2022-12-26T08:15:18.293Z,220.00
2022-12-26T08:16:18.216Z,212.00
2022-12-26T08:17:18.274Z,224.00
2022-12-26T08:18:18.222Z,232.00
2022-12-26T08:19:18.204Z,232.00
2022-12-26T08:20:18.180Z,232.00
2022-12-26T08:21:18.199Z,224.00
2022-12-26T08:22:18.171Z,236.00
2022-12-26T08:23:18.175Z,248.00
2022-12-26T08:24:18.165Z,236.00
2022-12-26T08:25:20.201Z,228.00
2022-12-26T08:26:18.170Z,216.00
2022-12-26T08:27:18.152Z,204.00
2022-12-26T08:28:18.148Z,200.00
2022-12-26T08:29:18.152Z,208.00
2022-12-26T08:30:18.156Z,216.00
2022-12-26T08:31:18.244Z,232.00
2022-12-26T08:32:18.136Z,236.00
2022-12-26T08:33:18.133Z,228.00
2022-12-26T08:34:18.147Z,216.00
2022-12-26T08:35:18.127Z,208.00
2022-12-26T08:36:18.134Z,224.00
2022-12-26T08:37:18.115Z,244.00
2022-12-26T08:38:18.111Z,272.00
2022-12-26T08:39:18.122Z,308.00
2022-12-26T08:40:26.789Z,336.00
2022-12-26T08:41:18.097Z,376.00
2022-12-26T08:42:18.097Z,420.00
2022-12-26T08:44:27.174Z,472.00
2022-12-26T08:45:18.091Z,476.00
2022-12-26T08:46:18.146Z,424.00
2022-12-26T08:47:18.102Z,424.00
2022-12-26T08:48:18.100Z,428.00
2022-12-26T08:49:18.069Z,356.00
2022-12-26T08:50:18.064Z,264.00
2022-12-26T08:51:18.072Z,200.00
2022-12-26T08:52:18.056Z,200.00
2022-12-26T08:53:18.051Z,168.00
2022-12-26T08:54:18.064Z,184.00
2022-12-26T08:55:18.075Z,168.00
2022-12-26T08:56:18.038Z,152.00
2022-12-26T08:57:18.058Z,188.00
2022-12-26T08:58:18.122Z,176.00
2022-12-26T08:59:18.025Z,192.00
2022-12-26T09:00:18.044Z,188.00
2022-12-26T09:01:18.142Z,212.00
2022-12-26T09:02:18.218Z,196.00
2022-12-26T09:03:18.081Z,232.00
2022-12-26T09:04:18.021Z,256.00
2022-12-26T09:05:18.013Z,248.00
2022-12-26T09:06:18.013Z,324.00
2022-12-26T09:07:18.001Z,340.00
2022-12-26T09:08:17.994Z,380.00
2022-12-26T09:09:18.012Z,304.00
2022-12-26T09:10:18.000Z,292.00
2022-12-26T09:11:18.005Z,384.00
2022-12-26T09:12:17.989Z,632.00
2022-12-26T09:13:17.979Z,764.00
2022-12-26T09:14:17.988Z,820.00
2022-12-26T09:15:17.974Z,856.00
2022-12-26T09:16:18.058Z,856.00
2022-12-26T09:17:17.974Z,824.00
2022-12-26T09:18:17.979Z,820.00
2022-12-26T09:19:17.988Z,804.00
2022-12-26T09:20:17.947Z,760.00
2022-12-26T09:21:17.946Z,720.00
2022-12-26T09:22:17.943Z,664.00
2022-12-26T09:23:17.978Z,680.00
2022-12-26T09:24:17.955Z,708.00
2022-12-26T09:25:17.968Z,740.00
2022-12-26T09:26:17.948Z,860.00
2022-12-26T09:27:17.933Z,900.00
2022-12-26T09:28:17.920Z,956.00
2022-12-26T09:29:17.914Z,948.00
2022-12-26T09:30:17.910Z,928.00
2022-12-26T09:31:17.981Z,936.00
2022-12-26T09:32:17.919Z,908.00
2022-12-26T09:33:17.899Z,860.00
2022-12-26T09:34:17.903Z,804.00
2022-12-26T09:35:17.913Z,756.00
2022-12-26T09:36:17.893Z,720.00
2022-12-26T09:37:17.906Z,672.00
2022-12-26T09:38:17.887Z,636.00
2022-12-26T09:39:17.887Z,544.00
2022-12-26T09:40:17.875Z,480.00
2022-12-26T09:41:17.878Z,492.00
2022-12-26T09:42:17.881Z,548.00
2022-12-26T09:43:17.876Z,576.00
2022-12-26T09:44:17.865Z,412.00
2022-12-26T09:45:17.890Z,348.00
2022-12-26T09:46:17.885Z,380.00
2022-12-26T09:47:17.868Z,456.00
2022-12-26T09:48:17.869Z,660.00
2022-12-26T09:49:17.842Z,900.00
2022-12-26T09:50:17.849Z,804.00
2022-12-26T09:51:17.852Z,840.00
2022-12-26T09:52:17.829Z,988.00
2022-12-26T09:53:17.825Z,1276.00
2022-12-26T09:54:17.833Z,1064.00
2022-12-26T09:55:17.823Z,900.00
2022-12-26T09:57:01.216Z,1232.00
2022-12-26T09:57:17.833Z,1120.00
2022-12-26T09:58:17.831Z,828.00
2022-12-26T09:59:17.814Z,772.00
2022-12-26T10:00:17.812Z,868.00
2022-12-26T10:01:17.941Z,868.00
2022-12-26T10:02:17.973Z,976.00
2022-12-26T10:13:27.123Z,1624.00
2022-12-26T10:14:26.979Z,1620.00
2022-12-26T10:15:26.974Z,1328.00
2022-12-26T10:16:26.968Z,1364.00
2022-12-26T10:17:26.965Z,1376.00
2022-12-26T10:18:26.982Z,1276.00
2022-12-26T10:19:32.208Z,1080.00
2022-12-26T10:20:26.951Z,1024.00
2022-12-26T10:21:26.939Z,1316.00
2022-12-26T10:22:26.937Z,1196.00
2022-12-26T10:23:26.936Z,896.00
2022-12-26T10:24:26.935Z,1072.00
2022-12-26T10:25:32.010Z,956.00
2022-12-26T10:26:26.940Z,828.00
2022-12-26T10:27:26.921Z,884.00
2022-12-26T10:28:26.921Z,812.00
2022-12-26T10:29:26.915Z,784.00
2022-12-26T10:30:26.898Z,680.00
2022-12-26T10:31:26.957Z,748.00
2022-12-26T10:32:28.298Z,660.00
2022-12-26T10:33:26.902Z,668.00
2022-12-26T10:34:26.888Z,708.00
2022-12-26T10:35:26.887Z,984.00
2022-12-26T10:36:26.886Z,1552.00
2022-12-26T10:37:26.901Z,1772.00
2022-12-26T10:38:27.925Z,1868.00
2022-12-26T10:39:26.874Z,2076.00
2022-12-26T10:40:26.867Z,2064.00
2022-12-26T10:41:26.865Z,2028.00
2022-12-26T10:42:26.912Z,2140.00
2022-12-26T10:43:26.865Z,2148.00
2022-12-26T10:44:28.056Z,2144.00
2022-12-26T10:45:26.859Z,1812.00
2022-12-26T10:46:26.884Z,1252.00
2022-12-26T10:47:26.844Z,896.00
2022-12-26T10:48:26.853Z,732.00
2022-12-26T10:49:26.850Z,700.00
2022-12-26T10:50:27.873Z,844.00
2022-12-26T10:51:26.830Z,836.00
2022-12-26T10:52:26.822Z,724.00
2022-12-26T10:53:26.828Z,524.00
2022-12-26T10:54:26.831Z,376.00
2022-12-26T10:55:28.033Z,260.00
2022-12-26T10:56:26.806Z,208.00
2022-12-26T10:57:26.815Z,232.00
2022-12-26T10:58:26.808Z,244.00
2022-12-26T10:59:26.828Z,216.00
2022-12-26T11:00:26.816Z,224.00
2022-12-26T11:01:26.906Z,260.00
2022-12-26T11:02:27.043Z,360.00
2022-12-26T11:03:26.877Z,380.00
2022-12-26T11:04:53.065Z,364.00
2022-12-26T11:05:56.983Z,400.00
2022-12-26T11:06:26.780Z,456.00
2022-12-26T11:07:26.781Z,408.00
2022-12-26T11:08:26.770Z,384.00
2022-12-26T11:09:26.772Z,356.00
2022-12-26T11:10:26.771Z,344.00
2022-12-26T11:11:26.776Z,452.00
2022-12-26T11:12:26.761Z,884.00
2022-12-26T11:13:26.748Z,1384.00
2022-12-26T11:14:31.693Z,2188.00
2022-12-26T11:15:26.746Z,3008.00
2022-12-26T11:16:26.824Z,3960.00
2022-12-26T11:17:26.761Z,2936.00
2022-12-26T11:18:26.734Z,3168.00
2022-12-26T11:19:26.733Z,3068.00
2022-12-26T11:20:26.729Z,3168.00
2022-12-26T11:21:26.723Z,2716.00
2022-12-26T11:22:26.746Z,2464.00
2022-12-26T11:23:26.720Z,1604.00
2022-12-26T11:24:26.734Z,1596.00
2022-12-26T11:25:26.710Z,1776.00
2022-12-26T11:26:26.715Z,1400.00
2022-12-26T11:27:26.699Z,1016.00
2022-12-26T11:28:26.707Z,932.00
2022-12-26T11:29:26.693Z,932.00
2022-12-26T11:30:26.695Z,972.00
2022-12-26T11:31:26.825Z,872.00
2022-12-26T11:32:26.687Z,736.00
2022-12-26T11:33:26.706Z,712.00
2022-12-26T11:34:26.683Z,708.00
2022-12-26T11:35:26.682Z,836.00
2022-12-26T11:36:26.691Z,968.00
2022-12-26T11:37:26.671Z,1036.00
2022-12-26T11:38:26.664Z,1436.00
2022-12-26T11:39:26.664Z,1724.00
2022-12-26T11:40:26.660Z,1792.00
2022-12-26T11:41:26.680Z,1412.00
2022-12-26T11:42:26.662Z,1068.00
2022-12-26T11:43:26.648Z,928.00
2022-12-26T11:44:26.652Z,864.00
2022-12-26T11:45:26.644Z,800.00
2022-12-26T11:46:26.710Z,640.00
2022-12-26T11:47:26.644Z,512.00
2022-12-26T11:48:26.632Z,444.00
2022-12-26T11:49:26.660Z,388.00
2022-12-26T11:50:26.628Z,336.00
2022-12-26T11:51:26.623Z,292.00
2022-12-26T11:52:26.638Z,264.00
2022-12-26T11:53:26.617Z,284.00
2022-12-26T11:54:26.616Z,268.00
2022-12-26T11:55:26.650Z,296.00
2022-12-26T11:56:26.612Z,392.00
2022-12-26T11:57:26.602Z,492.00
2022-12-26T11:58:26.607Z,488.00
2022-12-26T11:59:26.594Z,464.00
2022-12-26T12:00:26.601Z,576.00
2022-12-26T12:01:26.625Z,448.00
2022-12-26T12:02:26.652Z,440.00
2022-12-26T12:03:26.650Z,500.00
2022-12-26T12:04:26.583Z,516.00
2022-12-26T12:05:26.588Z,436.00
2022-12-26T12:06:26.571Z,420.00
2022-12-26T12:07:26.566Z,532.00
2022-12-26T12:08:26.582Z,436.00
2022-12-26T12:09:26.563Z,508.00
2022-12-26T12:10:26.562Z,924.00
2022-12-26T12:11:26.564Z,1520.00
2022-12-26T12:12:26.556Z,1576.00
2022-12-26T12:13:26.554Z,1556.00
2022-12-26T12:14:26.542Z,1220.00
2022-12-26T12:15:26.541Z,1020.00
2022-12-26T12:16:26.587Z,744.00
2022-12-26T12:17:26.539Z,636.00
2022-12-26T12:18:26.538Z,516.00
2022-12-26T12:19:26.535Z,440.00
2022-12-26T12:20:26.526Z,292.00
2022-12-26T12:21:26.568Z,176.00
2022-12-26T12:22:26.523Z,124.00
2022-12-26T12:23:26.517Z,124.00
2022-12-26T12:24:26.524Z,128.00
2022-12-26T12:25:26.505Z,96.00
2022-12-26T12:26:26.499Z,96.00
2022-12-26T12:27:26.514Z,92.00
2022-12-26T12:28:26.493Z,104.00
2022-12-26T12:29:26.492Z,128.00
2022-12-26T12:30:26.497Z,324.00
2022-12-26T12:31:26.559Z,512.00
2022-12-26T12:32:26.479Z,512.00
2022-12-26T12:33:26.473Z,548.00
2022-12-26T12:34:26.474Z,612.00
2022-12-26T12:35:26.467Z,560.00
2022-12-26T12:36:26.463Z,520.00
2022-12-26T12:37:26.479Z,504.00
2022-12-26T12:38:26.461Z,432.00
2022-12-26T12:39:26.453Z,424.00
2022-12-26T12:40:26.457Z,404.00
2022-12-26T12:41:26.445Z,424.00
2022-12-26T12:42:26.448Z,480.00
2022-12-26T12:43:26.438Z,392.00
2022-12-26T12:44:26.434Z,284.00
2022-12-26T12:45:26.502Z,244.00
2022-12-26T12:46:26.424Z,212.00
2022-12-26T12:47:26.423Z,208.00
2022-12-26T12:48:26.418Z,152.00
2022-12-26T12:49:26.418Z,148.00
2022-12-26T12:50:26.413Z,188.00
2022-12-26T12:51:26.407Z,276.00
2022-12-26T12:52:26.415Z,400.00
2022-12-26T12:53:26.403Z,508.00
2022-12-26T12:54:26.409Z,504.00
2022-12-26T12:55:26.389Z,692.00
2022-12-26T12:56:26.440Z,908.00
2022-12-26T12:57:26.382Z,1336.00
2022-12-26T12:58:26.381Z,996.00
2022-12-26T12:59:26.402Z,800.00
2022-12-26T13:00:26.375Z,660.00
2022-12-26T13:01:26.453Z,748.00
2022-12-26T13:02:26.665Z,1524.00
2022-12-26T13:03:26.403Z,2560.00
2022-12-26T13:04:26.403Z,1724.00
2022-12-26T13:05:26.356Z,2308.00
2022-12-26T13:06:26.482Z,3180.00
2022-12-26T13:07:26.345Z,1264.00
2022-12-26T13:08:26.354Z,1664.00
2022-12-26T13:09:26.367Z,2056.00
2022-12-26T13:10:26.368Z,1412.00
2022-12-26T13:11:26.355Z,1536.00
2022-12-26T13:12:26.339Z,1308.00
2022-12-26T13:13:26.338Z,1888.00
2022-12-26T13:14:26.333Z,1856.00
2022-12-26T13:15:26.326Z,1932.00
2022-12-26T13:16:26.420Z,1524.00
2022-12-26T13:17:26.315Z,1584.00
2022-12-26T13:18:26.303Z,1676.00
2022-12-26T13:19:26.317Z,1688.00
2022-12-26T13:20:26.299Z,1448.00
2022-12-26T13:21:26.295Z,1808.00
2022-12-26T13:22:26.288Z,1832.00
2022-12-26T13:23:26.299Z,2024.00
2022-12-26T13:24:26.355Z,1572.00
2022-12-26T13:25:26.304Z,2744.00
2022-12-26T13:26:26.305Z,3180.00
2022-12-26T13:27:26.271Z,1980.00
2022-12-26T13:28:26.281Z,996.00
2022-12-26T13:29:26.277Z,1368.00
2022-12-26T13:30:26.262Z,3988.00
2022-12-26T13:31:26.299Z,1248.00
2022-12-26T13:32:26.281Z,1324.00
2022-12-26T13:33:26.249Z,1904.00
2022-12-26T13:34:26.260Z,2884.00
2022-12-26T13:35:26.243Z,1760.00
2022-12-26T13:36:26.240Z,2020.00
2022-12-26T13:37:26.235Z,2596.00
2022-12-26T13:38:26.257Z,6116.00
2022-12-26T13:39:26.244Z,3628.00
2022-12-26T13:40:26.241Z,4468.00
2022-12-26T13:41:26.279Z,7400.00
2022-12-26T13:42:26.215Z,5772.00
2022-12-26T13:43:26.213Z,3260.00
2022-12-26T13:44:26.236Z,1732.00
2022-12-26T13:45:26.223Z,1300.00
2022-12-26T13:46:26.246Z,1248.00
2022-12-26T13:47:26.215Z,1260.00
2022-12-26T13:48:26.221Z,1180.00
2022-12-26T13:49:26.197Z,1796.00
2022-12-26T13:50:26.190Z,2440.00
2022-12-26T13:51:26.186Z,1956.00
2022-12-26T13:52:26.187Z,2088.00
2022-12-26T13:53:26.326Z,3196.00
2022-12-26T13:54:26.191Z,2536.00
2022-12-26T13:55:26.178Z,2672.00
2022-12-26T13:56:26.190Z,2340.00
2022-12-26T13:57:26.242Z,2504.00
2022-12-26T13:58:26.174Z,2184.00
2022-12-26T13:59:26.163Z,1396.00
2022-12-26T14:00:26.169Z,1424.00
2022-12-26T14:01:26.278Z,1800.00
2022-12-26T14:02:43.020Z,2056.00
2022-12-26T14:03:26.457Z,1720.00
2022-12-26T14:04:26.146Z,1568.00
2022-12-26T14:05:26.144Z,1488.00
2022-12-26T14:06:26.162Z,1172.00
2022-12-26T14:07:26.145Z,1020.00
2022-12-26T14:08:26.154Z,980.00
2022-12-26T14:09:26.132Z,1020.00
2022-12-26T14:10:26.139Z,1044.00
2022-12-26T14:11:26.135Z,1236.00
2022-12-26T14:12:26.118Z,1364.00
2022-12-26T14:13:26.139Z,1232.00
2022-12-26T14:14:26.123Z,1088.00
2022-12-26T14:15:26.119Z,1108.00
2022-12-26T14:16:26.172Z,968.00
2022-12-26T14:17:26.100Z,768.00
2022-12-26T14:18:26.099Z,804.00
2022-12-26T14:19:26.091Z,796.00
2022-12-26T14:20:26.098Z,660.00
2022-12-26T14:21:26.088Z,744.00
2022-12-26T14:22:26.081Z,872.00
2022-12-26T14:23:26.093Z,976.00
2022-12-26T14:24:26.079Z,1060.00
2022-12-26T14:25:26.104Z,1020.00
2022-12-26T14:26:26.081Z,992.00
2022-12-26T14:27:26.070Z,1012.00
2022-12-26T14:28:26.073Z,972.00
2022-12-26T14:29:26.078Z,1000.00
2022-12-26T14:30:26.161Z,980.00
2022-12-26T14:31:26.041Z,800.00
2022-12-26T14:32:26.051Z,696.00
2022-12-26T14:33:26.074Z,776.00
2022-12-26T14:34:26.040Z,756.00
2022-12-26T14:35:26.045Z,724.00
2022-12-26T14:36:26.038Z,712.00
2022-12-26T14:37:26.041Z,716.00
2022-12-26T14:38:26.037Z,728.00
2022-12-26T14:39:26.025Z,724.00
2022-12-26T14:40:26.018Z,704.00
2022-12-26T14:41:26.023Z,684.00
2022-12-26T14:42:26.050Z,668.00
2022-12-26T14:43:26.008Z,664.00
2022-12-26T14:44:26.023Z,664.00
2022-12-26T14:45:26.008Z,660.00
2022-12-26T14:46:26.052Z,652.00
2022-12-26T14:47:25.997Z,640.00
2022-12-26T14:48:25.986Z,632.00
2022-12-26T14:49:30.454Z,616.00
2022-12-26T14:50:25.989Z,592.00
2022-12-26T14:51:25.978Z,568.00
2022-12-26T14:52:25.980Z,544.00
2022-12-26T14:53:25.969Z,524.00
2022-12-26T14:54:25.981Z,500.00
2022-12-26T14:55:25.965Z,480.00
2022-12-26T14:56:25.959Z,460.00
2022-12-26T14:57:25.948Z,440.00
2022-12-26T14:58:25.948Z,424.00
2022-12-26T14:59:25.957Z,400.00
2022-12-26T15:00:25.945Z,384.00
2022-12-26T15:01:26.094Z,364.00
2022-12-26T15:02:26.155Z,344.00
2022-12-26T15:03:25.987Z,324.00
2022-12-26T15:04:25.936Z,304.00
2022-12-26T15:05:25.929Z,288.00
2022-12-26T15:06:25.956Z,272.00
2022-12-26T15:07:25.918Z,256.00
2022-12-26T15:08:25.940Z,244.00
2022-12-26T15:09:25.911Z,232.00
2022-12-26T15:10:25.903Z,216.00
2022-12-26T15:11:25.902Z,204.00
2022-12-26T15:12:25.912Z,192.00
2022-12-26T15:13:25.897Z,176.00
2022-12-26T15:14:25.910Z,160.00
2022-12-26T15:15:25.922Z,144.00
2022-12-26T15:16:25.899Z,136.00
2022-12-26T15:17:25.911Z,128.00
2022-12-26T15:18:25.875Z,120.00
2022-12-26T15:19:25.906Z,112.00
2022-12-26T15:20:25.866Z,108.00
2022-12-26T15:21:25.881Z,100.00
2022-12-26T15:22:25.857Z,92.00
2022-12-26T15:23:25.866Z,80.00
2022-12-26T15:24:52.432Z,64.00
2022-12-26T15:25:25.855Z,56.00
2022-12-26T15:26:25.859Z,44.00
2022-12-26T15:27:25.836Z,36.00
2022-12-26T15:28:25.831Z,28.00
2022-12-26T15:29:25.846Z,24.00
2022-12-26T15:30:25.838Z,16.00
2022-12-26T15:31:25.919Z,12.00
2022-12-26T15:32:25.829Z,16.00
2022-12-26T15:33:25.838Z,12.00
2022-12-26T15:34:25.809Z,16.00
2022-12-26T15:35:25.815Z,8.00
2022-12-26T15:36:25.811Z,8.00
2022-12-26T15:37:25.815Z,8.00
2022-12-26T15:38:25.798Z,8.00
2022-12-26T15:39:25.793Z,8.00
2022-12-26T15:40:25.816Z,4.00
2022-12-26T15:41:25.782Z,4.00
2022-12-26T15:42:25.783Z,4.00
2022-12-26T15:43:25.774Z,4.00
2022-12-26T15:44:25.770Z,4.00
2022-12-26T15:45:28.326Z,4.00
2022-12-26T15:46:25.799Z,4.00
2022-12-26T15:47:25.753Z,4.00
2022-12-26T15:48:25.753Z,0.00
2022-12-26T15:49:25.782Z,0.00
2022-12-26T15:50:25.743Z,0.00
2022-12-26T15:51:25.747Z,4.00
2022-12-26T15:52:25.747Z,0.00
2022-12-26T15:53:25.736Z,0.00
2022-12-26T15:54:25.735Z,0.00
2022-12-26T15:55:25.743Z,0.00
2022-12-26T15:56:25.717Z,0.00
2022-12-26T15:57:25.711Z,0.00
2022-12-26T15:58:25.729Z,0.00
2022-12-26T15:59:25.750Z,0.00
2022-12-26T16:00:25.695Z,0.00
2022-12-26T16:12:38.409Z,0.00
2022-12-26T16:13:38.320Z,0.00
2022-12-26T16:14:38.303Z,0.00
2022-12-26T16:15:38.353Z,0.00
2022-12-26T16:16:38.288Z,0.00
2022-12-26T16:17:38.304Z,0.00
2022-12-26T16:18:38.287Z,0.00
2022-12-26T16:19:38.267Z,0.00
2022-12-26T16:20:38.277Z,0.00
2022-12-26T16:21:38.267Z,0.00
2022-12-26T16:22:38.263Z,0.00
2022-12-26T16:23:38.257Z,0.00
2022-12-26T16:24:38.246Z,0.00
2022-12-26T16:25:38.268Z,0.00
2022-12-26T16:26:38.245Z,0.00
2022-12-26T16:27:38.227Z,0.00
2022-12-26T16:28:38.231Z,0.00
2022-12-26T16:29:38.219Z,0.00
2022-12-26T16:30:38.212Z,0.00
2022-12-26T16:31:38.313Z,0.00
2022-12-26T16:32:38.202Z,0.00
2022-12-26T16:33:38.199Z,0.00
2022-12-26T16:34:38.193Z,0.00
2022-12-26T16:35:38.195Z,0.00
2022-12-26T16:36:38.188Z,0.00
2022-12-26T16:37:38.184Z,0.00
2022-12-26T16:38:38.186Z,0.00
2022-12-26T16:39:38.171Z,0.00
2022-12-26T16:40:38.173Z,0.00
2022-12-26T16:41:38.159Z,0.00
2022-12-26T16:42:38.158Z,0.00
2022-12-26T16:43:38.185Z,0.00
2022-12-26T16:44:38.151Z,0.00
2022-12-26T16:45:38.145Z,0.00
2022-12-26T16:46:38.196Z,0.00
2022-12-26T16:47:38.160Z,0.00
2022-12-26T16:48:38.133Z,0.00
2022-12-26T16:49:38.138Z,0.00
2022-12-26T16:50:38.158Z,0.00
2022-12-26T16:51:38.118Z,0.00
2022-12-26T16:52:45.638Z,0.00
2022-12-26T16:53:38.112Z,0.00
2022-12-26T16:54:38.122Z,0.00
2022-12-26T16:55:38.133Z,0.00
2022-12-26T16:56:38.101Z,0.00
2022-12-26T16:57:38.091Z,0.00
2022-12-26T16:58:38.089Z,0.00
2022-12-26T16:59:38.085Z,0.00
2022-12-26T17:00:38.121Z,0.00
2022-12-26T17:01:38.154Z,0.00
2022-12-26T17:02:38.211Z,0.00
2022-12-26T17:03:38.156Z,0.00
2022-12-26T17:04:38.063Z,0.00
2022-12-26T17:05:38.093Z,0.00